createdAt,value
2023-05-12T00:01:47.556Z,92.09
2023-05-12T00:04:14.300Z,91.90
2023-05-12T00:06:41.105Z,91.79
2023-05-12T00:09:07.824Z,91.33
2023-05-12T00:11:34.530Z,91.51
2023-05-12T00:14:01.576Z,91.70
2023-05-12T00:16:28.602Z,91.16
2023-05-12T00:18:55.466Z,91.02
2023-05-12T00:21:22.263Z,91.07
2023-05-12T00:23:48.914Z,90.41
2023-05-12T00:26:17.413Z,90.59
2023-05-12T00:28:45.228Z,91.67
2023-05-12T00:31:11.934Z,92.05
2023-05-12T00:33:38.780Z,92.67
2023-05-12T00:36:06.365Z,92.68
2023-05-12T00:38:34.402Z,92.40
2023-05-12T00:41:01.636Z,92.76
2023-05-12T00:43:28.374Z,92.56
2023-05-12T00:45:55.253Z,93.85
2023-05-12T00:48:22.057Z,94.43
2023-05-12T00:50:49.449Z,94.89
2023-05-12T00:53:16.287Z,90.04
2023-05-12T00:55:43.888Z,89.47
2023-05-12T00:58:10.819Z,91.28
2023-05-12T01:00:37.702Z,93.03
2023-05-12T01:03:04.876Z,94.16
2023-05-12T01:05:39.063Z,94.95
2023-05-12T01:08:06.288Z,95.05
2023-05-12T01:10:33.082Z,91.29
2023-05-12T01:12:59.984Z,90.39
2023-05-12T01:15:26.814Z,91.58
2023-05-12T01:18:02.102Z,92.84
2023-05-12T01:20:31.882Z,93.61
2023-05-12T01:22:59.792Z,94.00
2023-05-12T01:25:32.080Z,94.26
2023-05-12T01:28:02.405Z,94.65
2023-05-12T01:30:32.140Z,95.40
2023-05-12T01:32:59.260Z,95.71
2023-05-12T01:35:26.112Z,96.66
2023-05-12T01:38:00.580Z,96.52
2023-05-12T01:40:27.353Z,97.35
2023-05-12T01:42:55.572Z,97.42
2023-05-12T01:45:22.716Z,97.42
2023-05-12T01:47:51.301Z,97.08
2023-05-12T01:50:18.283Z,95.79
2023-05-12T01:52:46.235Z,95.42
2023-05-12T01:55:16.208Z,95.09
2023-05-12T01:57:51.076Z,95.54
2023-05-12T02:00:18.342Z,96.22
2023-05-12T02:02:53.522Z,95.22
2023-05-12T02:05:20.656Z,95.48
2023-05-12T02:07:49.444Z,95.82
2023-05-12T02:10:17.841Z,95.13
2023-05-12T02:12:45.609Z,95.57
2023-05-12T02:15:12.745Z,95.12
2023-05-12T02:17:44.213Z,96.63
2023-05-12T02:20:12.282Z,96.58
2023-05-12T02:22:39.153Z,96.73
2023-05-12T02:25:06.565Z,97.48
2023-05-12T02:27:34.405Z,97.31
2023-05-12T02:30:02.081Z,97.03
2023-05-12T02:32:33.835Z,97.78
2023-05-12T02:35:01.086Z,96.95
2023-05-12T02:37:31.005Z,96.78
2023-05-12T02:39:57.776Z,96.27
2023-05-12T02:42:28.708Z,95.99
2023-05-12T02:44:55.870Z,96.80
2023-05-12T02:47:22.890Z,96.38
2023-05-12T02:49:50.584Z,96.47
2023-05-12T02:52:17.439Z,96.91
2023-05-12T02:54:44.116Z,97.30
2023-05-12T02:57:11.628Z,99.42
2023-05-12T02:59:38.339Z,99.31
2023-05-12T03:02:05.650Z,98.93
2023-05-12T03:04:33.078Z,97.70
2023-05-12T03:06:59.865Z,97.52
2023-05-12T03:09:26.641Z,97.90
2023-05-12T03:11:53.406Z,98.35
2023-05-12T03:14:20.545Z,98.85
2023-05-12T03:16:47.474Z,98.81
2023-05-12T03:19:14.341Z,98.18
2023-05-12T03:21:41.028Z,98.17
2023-05-12T03:24:08.288Z,98.46
2023-05-12T03:26:34.995Z,97.48
2023-05-12T03:29:02.049Z,98.48
2023-05-12T03:31:28.779Z,98.54
2023-05-12T03:33:55.513Z,97.93
2023-05-12T03:36:22.557Z,97.98
2023-05-12T03:38:49.410Z,99.44
2023-05-12T03:41:17.077Z,99.07
2023-05-12T03:43:43.808Z,97.89
2023-05-12T03:46:10.619Z,97.27
2023-05-12T03:48:37.370Z,96.78
2023-05-12T03:51:04.322Z,96.75
2023-05-12T03:53:31.184Z,96.88
2023-05-12T03:55:57.901Z,97.35
2023-05-12T03:58:24.671Z,98.42
2023-05-12T04:00:51.464Z,97.85
2023-05-12T04:03:18.151Z,97.21
2023-05-12T04:05:44.964Z,97.93
2023-05-12T04:08:11.764Z,98.43
2023-05-12T04:10:41.949Z,98.07
2023-05-12T04:13:08.757Z,97.95
2023-05-12T04:15:35.772Z,98.21
2023-05-12T04:18:03.840Z,98.88
2023-05-12T04:20:30.558Z,97.83
2023-05-12T04:22:57.252Z,97.38
2023-05-12T04:25:24.068Z,97.65
2023-05-12T04:27:50.935Z,96.96
2023-05-12T04:30:17.743Z,96.44
2023-05-12T04:32:45.163Z,96.13
2023-05-12T04:35:11.883Z,96.34
2023-05-12T04:37:39.141Z,97.20
2023-05-12T04:40:07.995Z,96.98
2023-05-12T04:42:35.247Z,96.67
2023-05-12T04:45:02.009Z,96.46
2023-05-12T04:47:32.453Z,96.74
2023-05-12T04:49:59.242Z,95.27
2023-05-12T04:52:25.961Z,95.40
2023-05-12T04:54:53.320Z,96.83
2023-05-12T04:57:20.005Z,97.50
2023-05-12T04:59:46.960Z,97.73
2023-05-12T05:02:13.925Z,97.50
2023-05-12T05:04:40.882Z,97.66
2023-05-12T05:07:08.548Z,97.28
2023-05-12T05:09:36.464Z,97.19
2023-05-12T05:12:03.760Z,96.49
2023-05-12T05:14:32.253Z,96.59
2023-05-12T05:17:00.027Z,97.69
2023-05-12T05:19:39.097Z,97.63
2023-05-12T05:22:13.731Z,97.05
2023-05-12T05:24:40.433Z,96.02
2023-05-12T05:27:07.137Z,95.90
2023-05-12T05:29:33.810Z,96.02
2023-05-12T05:32:00.653Z,95.48
2023-05-12T05:34:27.384Z,94.34
2023-05-12T05:36:55.583Z,94.42
2023-05-12T05:39:22.837Z,94.04
2023-05-12T05:41:49.635Z,94.93
2023-05-12T05:44:16.368Z,95.24
2023-05-12T05:46:43.261Z,95.03
2023-05-12T05:49:10.076Z,94.74
2023-05-12T05:51:36.890Z,94.47
2023-05-12T05:54:04.300Z,94.15
2023-05-12T05:56:32.715Z,94.13
2023-05-12T05:59:03.056Z,94.84
2023-05-12T06:01:30.595Z,94.40
2023-05-12T06:03:59.564Z,94.53
2023-05-12T06:06:26.410Z,95.34
2023-05-12T06:08:55.903Z,96.32
2023-05-12T06:11:22.909Z,95.90
2023-05-12T06:13:49.821Z,95.05
2023-05-12T06:16:16.591Z,94.89
2023-05-12T06:18:43.452Z,95.18
2023-05-12T06:21:10.210Z,95.60
2023-05-12T06:23:36.939Z,95.74
2023-05-12T06:26:04.047Z,95.70
2023-05-12T06:28:30.692Z,94.56
2023-05-12T06:30:59.375Z,95.48
2023-05-12T06:33:26.092Z,94.99
2023-05-12T06:35:52.788Z,94.59
2023-05-12T06:38:19.427Z,94.41
2023-05-12T06:40:46.152Z,94.20
2023-05-12T06:43:13.143Z,93.69
2023-05-12T06:45:44.545Z,93.51
2023-05-12T06:48:11.896Z,92.41
2023-05-12T06:50:38.723Z,91.27
2023-05-12T06:53:06.354Z,90.97
2023-05-12T06:55:33.095Z,91.54
2023-05-12T06:57:59.922Z,91.57
2023-05-12T07:00:26.747Z,91.50
2023-05-12T07:02:53.491Z,91.83
2023-05-12T07:05:21.263Z,92.16
2023-05-12T07:07:48.258Z,92.27
2023-05-12T07:10:15.243Z,92.76
2023-05-12T07:12:42.071Z,93.36
2023-05-12T07:15:09.682Z,92.79
2023-05-12T07:17:36.640Z,92.39
2023-05-12T07:20:04.927Z,91.87
2023-05-12T07:22:32.647Z,91.02
2023-05-12T07:24:59.760Z,91.01
2023-05-12T07:27:26.876Z,90.00
2023-05-12T07:29:53.636Z,91.01
2023-05-12T07:32:20.416Z,90.33
2023-05-12T07:34:47.144Z,89.71
2023-05-12T07:37:13.846Z,89.09
2023-05-12T07:39:40.521Z,89.53
2023-05-12T07:42:07.406Z,89.94
2023-05-12T07:44:34.203Z,89.29
2023-05-12T07:47:01.134Z,88.85
2023-05-12T07:49:27.886Z,89.54
2023-05-12T07:51:54.851Z,88.36
2023-05-12T07:54:22.226Z,88.52
2023-05-12T07:56:48.857Z,89.71
2023-05-12T07:59:15.600Z,90.82
2023-05-12T08:01:42.935Z,90.84
2023-05-12T08:04:09.798Z,90.54
2023-05-12T08:06:36.554Z,90.44
2023-05-12T08:09:03.288Z,89.97
2023-05-12T08:11:29.977Z,89.56
2023-05-12T08:13:56.665Z,87.19
2023-05-12T08:16:23.432Z,86.21
2023-05-12T08:18:50.096Z,85.60
2023-05-12T08:21:16.726Z,85.99
2023-05-12T08:23:44.714Z,85.55
2023-05-12T08:26:11.454Z,84.32
2023-05-12T08:28:38.148Z,83.57
2023-05-12T08:31:05.237Z,83.49
2023-05-12T08:33:34.699Z,82.50
2023-05-12T08:36:01.947Z,81.28
2023-05-12T08:38:29.496Z,81.30
2023-05-12T08:41:12.615Z,80.53
2023-05-12T08:44:06.431Z,80.25
2023-05-12T08:46:33.304Z,79.48
2023-05-12T08:49:02.486Z,78.95
2023-05-12T08:51:36.755Z,79.06
2023-05-12T08:54:04.430Z,79.02
2023-05-12T08:59:03.384Z,77.25
2023-05-12T09:01:30.566Z,76.75
2023-05-12T09:03:57.438Z,77.19
2023-05-12T09:06:24.262Z,77.06
2023-05-12T09:08:51.317Z,77.02
2023-05-12T09:11:20.022Z,77.12
2023-05-12T09:14:00.328Z,76.60
2023-05-12T09:16:30.329Z,76.92
2023-05-12T09:18:58.925Z,78.06
2023-05-12T09:21:26.889Z,77.68
2023-05-12T09:24:10.183Z,77.73
2023-05-12T09:26:52.360Z,78.64
2023-05-12T09:29:30.007Z,77.98
2023-05-12T09:31:59.449Z,78.50
2023-05-12T09:34:38.567Z,78.03
2023-05-12T09:37:07.709Z,78.68
2023-05-12T09:39:35.144Z,79.51
2023-05-12T09:42:02.270Z,80.24
2023-05-12T09:44:29.999Z,79.82
2023-05-12T09:47:06.212Z,79.15
2023-05-12T09:49:32.944Z,79.74
2023-05-12T09:51:59.756Z,80.17
2023-05-12T09:54:31.064Z,79.46
2023-05-12T09:57:00.378Z,79.95
2023-05-12T09:59:31.406Z,80.57
2023-05-12T10:02:00.789Z,79.50
2023-05-12T10:04:29.995Z,77.94
2023-05-12T10:06:58.408Z,78.34
2023-05-12T10:09:36.080Z,78.47
2023-05-12T10:12:04.400Z,77.71
2023-05-12T10:14:31.744Z,74.44
2023-05-12T10:16:59.830Z,73.37
2023-05-12T10:19:28.481Z,71.52
2023-05-12T10:21:57.169Z,70.65
2023-05-12T10:24:27.576Z,70.07
2023-05-12T10:26:56.536Z,70.45
2023-05-12T10:29:29.967Z,69.57
2023-05-12T10:31:57.654Z,69.05
2023-05-12T10:34:41.743Z,70.12
2023-05-12T10:37:13.278Z,70.33
2023-05-12T10:39:50.975Z,70.96
2023-05-12T10:42:25.816Z,70.56
2023-05-12T10:44:53.953Z,70.14
2023-05-12T10:47:36.593Z,69.43
2023-05-12T10:50:03.465Z,70.70
2023-05-12T10:52:32.125Z,71.90
2023-05-12T10:55:03.893Z,71.93
2023-05-12T10:57:33.440Z,72.62
2023-05-12T11:00:02.312Z,70.96
2023-05-12T11:02:36.819Z,70.70
2023-05-12T11:05:14.732Z,70.44
2023-05-12T11:07:48.256Z,69.78
2023-05-12T11:10:15.927Z,68.94
2023-05-12T11:12:44.510Z,69.62
2023-05-12T11:15:12.208Z,69.97
2023-05-12T11:17:42.112Z,70.61
2023-05-12T11:20:09.928Z,69.96
2023-05-12T11:22:37.218Z,69.37
2023-05-12T11:25:11.271Z,68.34
2023-05-12T11:27:44.668Z,67.37
2023-05-12T11:30:11.551Z,67.16
2023-05-12T11:32:38.593Z,66.14
2023-05-12T11:35:19.600Z,65.63
2023-05-12T11:37:46.962Z,64.58
2023-05-12T11:40:18.425Z,64.40
2023-05-12T11:42:51.543Z,65.09
2023-05-12T11:45:23.174Z,63.98
2023-05-12T11:47:50.178Z,64.76
2023-05-12T11:50:22.479Z,63.90
2023-05-12T11:52:49.804Z,63.03
2023-05-12T11:55:22.330Z,62.92
2023-05-12T11:58:03.259Z,62.64
2023-05-12T12:00:35.284Z,62.89
2023-05-12T12:03:09.561Z,62.83
2023-05-12T12:05:36.602Z,63.25
2023-05-12T12:08:13.513Z,63.40
2023-05-12T12:10:45.142Z,63.09
2023-05-12T12:13:13.009Z,63.81
2023-05-12T12:15:39.770Z,63.39
2023-05-12T12:18:06.697Z,63.37
2023-05-12T12:20:33.439Z,62.73
2023-05-12T12:23:00.158Z,62.25
2023-05-12T12:25:26.925Z,62.87
2023-05-12T12:27:53.649Z,63.83
2023-05-12T12:30:20.410Z,63.27
2023-05-12T12:32:47.582Z,63.58
2023-05-12T12:35:14.336Z,63.42
2023-05-12T12:37:41.584Z,63.39
2023-05-12T12:40:09.870Z,63.53
2023-05-12T12:42:39.566Z,63.32
2023-05-12T12:45:10.130Z,63.07
2023-05-12T12:47:37.919Z,62.66
2023-05-12T12:50:09.550Z,62.55
2023-05-12T12:52:38.202Z,63.00
2023-05-12T12:55:06.716Z,62.35
2023-05-12T12:57:33.420Z,61.37
2023-05-12T13:00:00.102Z,60.28
2023-05-12T13:02:27.116Z,60.51
2023-05-12T13:04:53.998Z,61.47
2023-05-12T13:07:20.880Z,61.38
2023-05-12T13:09:47.642Z,61.36
2023-05-12T13:12:14.659Z,60.69
2023-05-12T13:14:41.293Z,61.00
2023-05-12T13:17:08.297Z,61.07
2023-05-12T13:19:37.753Z,60.51
2023-05-12T13:22:05.826Z,60.67
2023-05-12T13:24:32.935Z,60.39
2023-05-12T13:26:59.697Z,61.13
2023-05-12T13:29:26.628Z,61.06
2023-05-12T13:31:54.202Z,61.80
2023-05-12T13:34:21.292Z,62.14
2023-05-12T13:36:48.450Z,61.92
2023-05-12T13:39:15.760Z,62.03
2023-05-12T13:41:43.093Z,62.08
2023-05-12T13:44:10.920Z,62.03
2023-05-12T13:46:37.723Z,61.69
2023-05-12T13:49:04.430Z,61.26
2023-05-12T13:51:32.340Z,61.64
2023-05-12T13:53:59.163Z,61.41
2023-05-12T13:56:25.897Z,60.94
2023-05-12T13:58:52.679Z,60.79
2023-05-12T14:01:19.311Z,60.37
2023-05-12T14:03:46.065Z,60.93
2023-05-12T14:06:13.964Z,61.46
2023-05-12T14:08:42.332Z,62.73
2023-05-12T14:11:09.952Z,63.34
2023-05-12T14:13:36.672Z,64.08
2023-05-12T14:16:03.594Z,63.73
2023-05-12T14:18:30.471Z,64.09
2023-05-12T14:20:57.723Z,64.40
2023-05-12T14:23:24.465Z,64.09
2023-05-12T14:25:51.607Z,64.40
2023-05-12T14:28:18.429Z,65.02
2023-05-12T14:30:45.866Z,65.40
2023-05-12T14:33:12.630Z,65.12
2023-05-12T14:35:39.352Z,65.58
2023-05-12T14:38:06.133Z,65.18
2023-05-12T14:40:32.873Z,65.05
2023-05-12T14:43:00.027Z,65.16
2023-05-12T14:45:26.918Z,64.59
2023-05-12T14:47:53.757Z,64.48
2023-05-12T14:50:20.693Z,64.37
2023-05-12T14:52:47.576Z,63.55
2023-05-12T14:55:16.908Z,63.43
2023-05-12T14:57:44.553Z,64.52
2023-05-12T15:00:13.906Z,64.07
2023-05-12T15:02:43.060Z,63.34
2023-05-12T15:05:11.215Z,62.83
2023-05-12T15:07:38.280Z,60.46
2023-05-12T15:10:05.922Z,61.04
2023-05-12T15:12:33.412Z,60.75
2023-05-12T15:15:02.132Z,61.16
2023-05-12T15:17:35.163Z,60.55
2023-05-12T15:20:02.144Z,61.55
2023-05-12T15:22:32.862Z,60.88
2023-05-12T15:25:00.209Z,60.31
2023-05-12T15:27:27.095Z,59.57
2023-05-12T15:29:53.901Z,59.10
2023-05-12T15:32:20.659Z,59.57
2023-05-12T15:34:47.482Z,59.51
2023-05-12T15:37:14.487Z,59.93
2023-05-12T15:39:41.220Z,60.54
2023-05-12T15:42:08.551Z,61.38
2023-05-12T15:44:35.316Z,61.20
2023-05-12T15:47:02.084Z,62.14
2023-05-12T15:49:28.859Z,61.84
2023-05-12T15:51:55.465Z,62.44
2023-05-12T15:54:22.134Z,63.45
2023-05-12T15:56:50.060Z,63.15
2023-05-12T15:59:16.712Z,64.15
2023-05-12T16:01:43.389Z,64.08
2023-05-12T16:04:10.262Z,63.88
2023-05-12T16:06:36.922Z,62.90
2023-05-12T16:09:04.095Z,62.62
2023-05-12T16:11:30.762Z,61.75
2023-05-12T16:13:57.685Z,62.56
2023-05-12T16:16:24.442Z,63.25
2023-05-12T16:18:51.223Z,63.06
2023-05-12T16:21:19.936Z,63.57
2023-05-12T16:23:46.816Z,63.97
2023-05-12T16:26:13.510Z,63.21
2023-05-12T16:28:40.179Z,63.50
2023-05-12T16:31:06.872Z,64.01
2023-05-12T16:33:33.566Z,63.54
2023-05-12T16:36:00.323Z,62.85
2023-05-12T16:38:26.996Z,63.32
2023-05-12T16:40:53.614Z,62.49
2023-05-12T16:43:20.244Z,62.95
2023-05-12T16:45:46.988Z,62.42
2023-05-12T16:48:13.738Z,61.75
2023-05-12T16:50:40.340Z,62.14
2023-05-12T16:53:07.074Z,60.93
2023-05-12T16:55:33.720Z,61.46
2023-05-12T16:58:00.377Z,60.53
2023-05-12T17:00:27.260Z,60.40
2023-05-12T17:02:53.967Z,60.60
2023-05-12T17:05:21.362Z,61.05
2023-05-12T17:07:48.270Z,61.55
2023-05-12T17:10:15.022Z,62.23
2023-05-12T17:12:41.724Z,62.36
2023-05-12T17:15:09.439Z,62.79
2023-05-12T17:17:36.203Z,62.80
2023-05-12T17:20:03.695Z,62.71
2023-05-12T17:22:32.392Z,63.66
2023-05-12T17:24:58.994Z,64.56
2023-05-12T17:27:25.820Z,64.67
2023-05-12T17:29:52.483Z,65.29
2023-05-12T17:32:19.139Z,64.81
2023-05-12T17:34:49.257Z,65.05
2023-05-12T17:37:15.995Z,66.18
2023-05-12T17:39:44.251Z,65.79
2023-05-12T17:42:10.959Z,65.74
2023-05-12T17:44:37.587Z,65.62
2023-05-12T17:47:04.898Z,65.37
2023-05-12T17:49:31.715Z,65.90
2023-05-12T17:51:58.440Z,66.04
2023-05-12T17:54:25.203Z,66.17
2023-05-12T17:56:51.842Z,65.75
2023-05-12T17:59:18.500Z,66.33
2023-05-12T18:01:45.129Z,65.62
2023-05-12T18:04:11.911Z,67.02
2023-05-12T18:06:38.589Z,67.94
2023-05-12T18:09:06.048Z,68.50
2023-05-12T18:11:34.240Z,68.51
2023-05-12T18:14:02.520Z,67.81
2023-05-12T18:16:29.749Z,68.07
2023-05-12T18:18:56.891Z,68.50
2023-05-12T18:21:23.873Z,67.52
2023-05-12T18:23:50.623Z,67.53
2023-05-12T18:26:17.251Z,67.97
2023-05-12T18:28:44.426Z,66.87
2023-05-12T18:33:40.822Z,65.37
2023-05-12T18:36:07.995Z,66.20
2023-05-12T18:38:34.656Z,66.99
2023-05-12T18:41:01.324Z,66.78
2023-05-12T18:43:28.038Z,67.33
2023-05-12T18:45:54.649Z,67.44
2023-05-12T18:48:21.296Z,67.50
2023-05-12T18:50:48.009Z,67.77
2023-05-12T18:53:14.791Z,68.28
2023-05-12T18:55:41.579Z,67.75
2023-05-12T18:58:08.451Z,67.76
2023-05-12T19:00:35.656Z,68.21
2023-05-12T19:03:05.265Z,68.06
2023-05-12T19:05:32.037Z,67.21
2023-05-12T19:07:58.693Z,67.63
2023-05-12T19:10:27.029Z,67.98
2023-05-12T19:12:54.238Z,68.19
2023-05-12T19:15:21.579Z,67.60
2023-05-12T19:17:49.184Z,66.61
2023-05-12T19:20:15.949Z,66.92
2023-05-12T19:22:42.835Z,66.83
2023-05-12T19:25:09.696Z,66.43
2023-05-12T19:27:36.468Z,66.05
2023-05-12T19:30:05.045Z,67.17
2023-05-12T19:32:33.070Z,66.68
2023-05-12T19:35:01.411Z,66.93
2023-05-12T19:37:29.814Z,66.94
2023-05-12T19:39:56.522Z,65.84
2023-05-12T19:42:23.220Z,66.80
2023-05-12T19:44:50.243Z,65.93
2023-05-12T19:47:17.280Z,66.40
2023-05-12T19:49:43.969Z,66.57
2023-05-12T19:52:10.860Z,66.29
2023-05-12T19:54:37.671Z,65.02
2023-05-12T19:57:04.553Z,65.66
2023-05-12T19:59:31.323Z,65.99
2023-05-12T20:01:58.057Z,66.10
2023-05-12T20:04:25.471Z,65.73
2023-05-12T20:06:53.800Z,66.54
2023-05-12T20:09:22.094Z,66.70
2023-05-12T20:11:48.975Z,66.70
2023-05-12T20:14:15.847Z,65.55
2023-05-12T20:16:42.754Z,65.52
2023-05-12T20:19:09.684Z,65.16
2023-05-12T20:21:36.535Z,66.34
2023-05-12T20:24:03.680Z,65.91
2023-05-12T20:26:30.599Z,65.82
2023-05-12T20:28:58.520Z,66.51
2023-05-12T20:31:25.303Z,65.99
2023-05-12T20:33:52.536Z,65.83
2023-05-12T20:36:19.933Z,65.86
2023-05-12T20:38:46.700Z,65.54
2023-05-12T20:41:13.725Z,65.54
2023-05-12T20:43:41.368Z,65.04
2023-05-12T20:46:08.691Z,65.86
2023-05-12T20:48:35.389Z,66.43
2023-05-12T20:51:12.618Z,67.22
2023-05-12T20:53:39.719Z,67.25
2023-05-12T20:56:08.383Z,66.83
2023-05-12T20:58:35.550Z,66.24
2023-05-12T21:01:02.410Z,65.87
2023-05-12T21:03:29.164Z,65.62
2023-05-12T21:05:55.893Z,65.65
2023-05-12T21:08:22.638Z,65.71
2023-05-12T21:10:49.343Z,65.49
2023-05-12T21:13:16.134Z,66.54
2023-05-12T21:15:42.894Z,66.70
2023-05-12T21:18:09.604Z,67.33
2023-05-12T21:20:36.636Z,67.47
2023-05-12T21:23:03.421Z,68.52
2023-05-12T21:25:30.255Z,69.19
2023-05-12T21:27:56.878Z,69.41
2023-05-12T21:30:23.666Z,69.19
2023-05-12T21:32:50.681Z,68.90
2023-05-12T21:35:17.528Z,68.50
2023-05-12T21:37:45.164Z,68.34
2023-05-12T21:40:12.444Z,68.65
2023-05-12T21:42:39.251Z,68.90
2023-05-12T21:45:06.515Z,69.23
2023-05-12T21:47:33.694Z,69.33
2023-05-12T21:50:00.835Z,69.67
2023-05-12T21:52:27.980Z,69.86
2023-05-12T21:54:54.623Z,69.63
2023-05-12T21:57:22.572Z,69.21
2023-05-12T21:59:49.554Z,68.92
2023-05-12T22:02:16.551Z,69.22
2023-05-12T22:04:43.290Z,68.63
2023-05-12T22:07:10.032Z,68.90
2023-05-12T22:09:36.743Z,68.49
2023-05-12T22:12:03.534Z,68.33
2023-05-12T22:14:30.240Z,68.79
2023-05-12T22:16:57.270Z,68.94
2023-05-12T22:19:24.008Z,68.70
2023-05-12T22:21:51.371Z,68.88
2023-05-12T22:24:18.081Z,69.05
2023-05-12T22:26:44.719Z,69.25
2023-05-12T22:29:11.326Z,69.35
2023-05-12T22:31:38.015Z,69.43
2023-05-12T22:34:05.011Z,69.85
2023-05-12T22:36:31.723Z,70.04
2023-05-12T22:38:58.701Z,70.07
2023-05-12T22:41:25.668Z,70.04
2023-05-12T22:43:52.325Z,70.73
2023-05-12T22:46:19.029Z,70.26
2023-05-12T22:48:45.792Z,70.42
2023-05-12T22:51:12.542Z,70.52
2023-05-12T22:53:42.169Z,70.93
2023-05-12T22:56:08.787Z,71.01
2023-05-12T22:58:35.487Z,71.76
2023-05-12T23:01:02.435Z,71.98
2023-05-12T23:03:29.564Z,72.00
2023-05-12T23:05:56.289Z,72.43
2023-05-12T23:08:23.036Z,72.90
2023-05-12T23:10:49.702Z,73.06
2023-05-12T23:13:16.379Z,73.86
2023-05-12T23:15:43.011Z,73.77
2023-05-12T23:18:09.812Z,73.77
2023-05-12T23:20:36.554Z,73.87
2023-05-12T23:23:03.287Z,74.20
2023-05-12T23:25:30.030Z,74.65
2023-05-12T23:27:56.659Z,74.97
2023-05-12T23:30:23.634Z,74.58
2023-05-12T23:32:50.663Z,74.41
2023-05-12T23:35:17.431Z,74.53
2023-05-12T23:37:44.214Z,74.69
2023-05-12T23:40:11.030Z,74.59
2023-05-12T23:42:37.741Z,74.64
2023-05-12T23:45:04.927Z,74.90
2023-05-12T23:47:31.717Z,75.17
2023-05-12T23:49:58.510Z,75.64
2023-05-12T23:52:25.305Z,75.96
2023-05-12T23:54:51.933Z,75.98
2023-05-12T23:57:18.684Z,76.64
2023-05-12T23:59:45.895Z,77.20
